Time;durP1;ratioP1;P1;durP2;ratioP2;P2;SDS_P1;SDS_P2;PMS_P1;PMS_P2;Temp;Humidity;BMP_temperature;BMP_pressure;BME280_temperature;BME280_humidity;BME280_pressure;Samples;Min_cycle;Max_cycle;Signal;HPM_P1;HPM_P2
2022/04/09 00:00:21;;;;;;;6.63;1.83;;;6.30;99.90;;;;;;5027771;28;20223;-87
2022/04/09 00:02:48;;;;;;;13.53;3.50;;;6.30;99.90;;;;;;5030241;28;20929;-86
2022/04/09 00:05:15;;;;;;;6.57;2.00;;;6.10;99.90;;;;;;5032698;28;20200;-85
2022/04/09 00:07:43;;;;;;;10.87;2.00;;;6.20;99.90;;;;;;5032896;28;20243;-86
2022/04/09 00:10:11;;;;;;;9.20;1.60;;;6.20;99.90;;;;;;5028415;28;20212;-86
2022/04/09 00:12:38;;;;;;;12.30;2.57;;;6.20;99.90;;;;;;5045631;28;20208;-86
2022/04/09 00:15:06;;;;;;;9.93;1.70;;;6.30;99.90;;;;;;5031198;28;20255;-87
2022/04/09 00:17:41;;;;;;;7.77;1.67;;;6.20;99.90;;;;;;5030516;28;20204;-86
2022/04/09 00:20:10;;;;;;;9.43;2.07;;;6.10;99.90;;;;;;5025370;28;20227;-86
2022/04/09 00:22:38;;;;;;;10.90;2.07;;;6.20;99.90;;;;;;5046670;28;20284;-85
2022/04/09 00:25:06;;;;;;;9.27;1.83;;;6.20;99.90;;;;;;5030920;28;20207;-86
2022/04/09 00:27:33;;;;;;;10.07;1.90;;;6.30;99.90;;;;;;5031083;28;20212;-87
2022/04/09 00:30:01;;;;;;;6.70;1.67;;;6.20;99.90;;;;;;5032237;28;20215;-86
2022/04/09 00:32:27;;;;;;;12.17;1.93;;;6.00;99.90;;;;;;5029486;28;20348;-86
2022/04/09 00:34:54;;;;;;;12.10;1.70;;;6.20;99.90;;;;;;5029431;28;20199;-86
2022/04/09 00:37:21;;;;;;;7.87;2.20;;;6.10;99.90;;;;;;5039719;28;20201;-88
2022/04/09 00:39:48;;;;;;;9.87;2.33;;;6.10;99.90;;;;;;5027225;28;20190;-87
2022/04/09 00:42:16;;;;;;;7.30;1.60;;;6.10;99.90;;;;;;5026197;28;20591;-87
2022/04/09 00:44:43;;;;;;;7.07;1.53;;;6.20;99.90;;;;;;5028488;28;20210;-87
2022/04/09 00:47:10;;;;;;;9.83;1.77;;;6.20;99.90;;;;;;5028739;28;20292;-88
2022/04/09 00:49:39;;;;;;;5.23;1.53;;;6.10;99.90;;;;;;5023809;28;20333;-87
2022/04/09 00:52:08;;;;;;;6.77;2.13;;;6.10;99.90;;;;;;5029062;28;20212;-89
2022/04/09 00:54:42;;;;;;;5.87;1.60;;;6.10;99.90;;;;;;5029095;28;20209;-87
2022/04/09 00:57:10;;;;;;;8.17;1.77;;;6.20;99.90;;;;;;5047755;28;20220;-89
2022/04/09 00:59:41;;;;;;;12.50;2.40;;;6.20;99.90;;;;;;5047921;28;20223;-87
2022/04/09 01:02:11;;;;;;;13.40;2.30;;;6.20;99.90;;;;;;5024437;28;20217;-88
2022/04/09 01:04:45;;;;;;;7.63;1.53;;;6.30;99.90;;;;;;5041696;28;20296;-88
2022/04/09 01:07:13;;;;;;;12.60;2.10;;;6.10;99.90;;;;;;5024904;28;20215;-88
2022/04/09 01:09:44;;;;;;;12.73;2.10;;;6.10;99.90;;;;;;5045651;28;20216;-89
2022/04/09 01:12:15;;;;;;;6.13;1.50;;;6.00;99.90;;;;;;5025821;28;20196;-88
2022/04/09 01:14:42;;;;;;;6.33;1.70;;;6.00;99.90;;;;;;5043492;28;20232;-86
2022/04/09 01:17:09;;;;;;;7.90;3.10;;;6.10;99.90;;;;;;5045011;28;20207;-88
2022/04/09 01:19:36;;;;;;;7.57;1.67;;;6.00;99.90;;;;;;5026344;28;20201;-86
2022/04/09 01:22:04;;;;;;;6.73;1.70;;;6.00;99.90;;;;;;5044833;28;20220;-85
2022/04/09 01:24:31;;;;;;;9.23;1.80;;;6.00;99.90;;;;;;5028921;28;20665;-86
2022/04/09 01:26:59;;;;;;;10.73;1.73;;;6.00;99.90;;;;;;5027663;28;20204;-88
2022/04/09 01:29:25;;;;;;;9.67;1.93;;;6.10;99.90;;;;;;5025987;28;20193;-86
2022/04/09 01:31:52;;;;;;;10.20;1.97;;;6.00;99.90;;;;;;5043519;28;20219;-86
2022/04/09 01:34:20;;;;;;;13.07;2.70;;;6.00;99.90;;;;;;5042449;28;20207;-86
2022/04/09 01:36:47;;;;;;;10.60;1.60;;;6.00;99.90;;;;;;5030021;28;20221;-87
2022/04/09 01:39:17;;;;;;;8.13;1.70;;;6.00;99.90;;;;;;5050439;28;20554;-86
2022/04/09 01:41:47;;;;;;;6.23;1.80;;;6.00;99.90;;;;;;5031107;28;20309;-86
2022/04/09 01:44:15;;;;;;;6.67;1.50;;;6.00;99.90;;;;;;5027496;28;20608;-86
2022/04/09 01:46:44;;;;;;;10.20;2.17;;;6.10;99.90;;;;;;5029422;28;20228;-86
2022/04/09 01:49:13;;;;;;;10.10;1.50;;;6.00;99.90;;;;;;5034768;28;20288;-87
2022/04/09 01:51:40;;;;;;;7.40;1.20;;;6.00;99.90;;;;;;5035002;28;20624;-85
2022/04/09 01:54:06;;;;;;;7.10;1.30;;;6.00;99.90;;;;;;5031011;28;20867;-88
2022/04/09 01:56:33;;;;;;;7.13;1.80;;;5.90;99.90;;;;;;5032212;28;20220;-86
2022/04/09 01:59:00;;;;;;;10.43;1.50;;;6.00;99.90;;;;;;5035050;28;20336;-87
2022/04/09 02:01:27;;;;;;;7.57;1.80;;;5.90;99.90;;;;;;5031213;28;20217;-87
2022/04/09 02:03:54;;;;;;;9.43;1.60;;;6.00;99.90;;;;;;5029436;28;20291;-87
2022/04/09 02:06:21;;;;;;;6.27;1.30;;;6.00;99.90;;;;;;5034027;28;20211;-85
2022/04/09 02:08:48;;;;;;;7.57;1.17;;;6.00;99.90;;;;;;5032436;28;20236;-86
2022/04/09 02:11:15;;;;;;;6.60;2.73;;;6.00;99.90;;;;;;5050493;28;20220;-86
2022/04/09 02:13:42;;;;;;;12.63;2.00;;;5.90;99.90;;;;;;5033979;28;20274;-87
2022/04/09 02:16:09;;;;;;;8.73;1.43;;;6.00;99.90;;;;;;5052316;28;20217;-87
2022/04/09 02:18:36;;;;;;;7.23;1.50;;;6.00;99.90;;;;;;5054738;28;20252;-88
2022/04/09 02:21:03;;;;;;;9.53;1.50;;;6.10;99.90;;;;;;5036278;28;21359;-88
2022/04/09 02:23:30;;;;;;;6.77;1.33;;;6.00;99.90;;;;;;5036283;28;20251;-88
2022/04/09 02:25:57;;;;;;;5.87;2.07;;;6.10;99.90;;;;;;5052571;28;20228;-87
2022/04/09 02:28:26;;;;;;;5.17;1.47;;;6.00;99.90;;;;;;5054649;28;20216;-87
2022/04/09 02:30:52;;;;;;;7.60;1.50;;;6.00;99.90;;;;;;5038419;28;20602;-87
2022/04/09 02:33:19;;;;;;;8.13;1.43;;;5.90;99.90;;;;;;5054877;28;20205;-87
2022/04/09 02:35:46;;;;;;;4.67;1.50;;;5.90;99.90;;;;;;5037708;28;20193;-87
2022/04/09 02:38:13;;;;;;;12.33;1.87;;;6.00;99.90;;;;;;5039595;28;20277;-86
2022/04/09 02:40:40;;;;;;;12.27;1.47;;;6.00;99.90;;;;;;5035120;28;20209;-86
2022/04/09 02:43:08;;;;;;;5.83;1.20;;;6.00;99.90;;;;;;5035354;28;20204;-87
2022/04/09 02:45:35;;;;;;;3.03;1.00;;;6.00;99.90;;;;;;5031475;28;20206;-86
2022/04/09 02:48:02;;;;;;;5.03;1.00;;;6.00;99.90;;;;;;5030793;28;20375;-86
2022/04/09 02:50:29;;;;;;;3.57;0.77;;;6.00;99.90;;;;;;5031198;28;23753;-86
2022/04/09 02:52:56;;;;;;;5.50;0.90;;;5.90;99.90;;;;;;5029710;28;20208;-87
2022/04/09 02:55:23;;;;;;;4.83;1.03;;;6.00;99.90;;;;;;5051171;28;20225;-85
2022/04/09 02:57:50;;;;;;;6.27;1.20;;;6.00;99.90;;;;;;5031700;28;20238;-86
2022/04/09 03:00:17;;;;;;;6.33;1.00;;;6.00;99.90;;;;;;5029188;28;20203;-86
2022/04/09 03:02:44;;;;;;;4.80;1.40;;;6.00;99.90;;;;;;5045647;28;20298;-85
2022/04/09 03:05:13;;;;;;;6.13;1.30;;;6.00;99.90;;;;;;5030982;28;20222;-89
2022/04/09 03:07:40;;;;;;;7.07;1.10;;;6.00;99.90;;;;;;5030386;28;20266;-86
2022/04/09 03:10:08;;;;;;;4.90;0.97;;;5.90;99.90;;;;;;5047575;28;20618;-85
2022/04/09 03:12:34;;;;;;;3.93;1.13;;;6.00;99.90;;;;;;5028604;28;21479;-86
2022/04/09 03:15:01;;;;;;;8.07;1.60;;;6.00;99.90;;;;;;5027820;28;20273;-86
2022/04/09 03:17:28;;;;;;;7.53;2.27;;;5.90;99.90;;;;;;5045018;28;20293;-86
2022/04/09 03:19:55;;;;;;;4.37;1.30;;;6.10;99.90;;;;;;5028004;28;20581;-86
2022/04/09 03:22:22;;;;;;;7.17;1.40;;;6.10;99.90;;;;;;5030334;28;20303;-86
2022/04/09 03:24:49;;;;;;;7.07;1.63;;;5.90;99.90;;;;;;5048333;28;20204;-88
2022/04/09 03:27:16;;;;;;;7.33;1.60;;;5.80;99.90;;;;;;5027590;28;20236;-86
2022/04/09 03:29:44;;;;;;;7.43;1.77;;;5.70;99.90;;;;;;5028194;28;20214;-86
2022/04/09 03:32:11;;;;;;;13.00;1.50;;;5.90;99.90;;;;;;5029298;28;20555;-86
2022/04/09 03:34:38;;;;;;;5.87;1.57;;;5.80;99.90;;;;;;5027343;28;20325;-85
2022/04/09 03:37:05;;;;;;;8.10;1.37;;;5.70;99.90;;;;;;5030705;28;20231;-85
2022/04/09 03:39:37;;;;;;;7.07;1.30;;;5.80;99.90;;;;;;5029788;28;20325;-85
2022/04/09 03:42:05;;;;;;;6.77;1.37;;;5.80;99.90;;;;;;5047738;28;20309;-85
2022/04/09 03:44:46;;;;;;;7.97;1.43;;;5.80;99.90;;;;;;5029927;28;20242;-86
2022/04/09 03:47:13;;;;;;;7.63;1.47;;;5.50;99.90;;;;;;5023862;28;20229;-87
2022/04/09 03:49:39;;;;;;;10.10;1.50;;;5.20;99.90;;;;;;5028412;28;20212;-86
2022/04/09 03:52:08;;;;;;;7.23;1.67;;;5.20;99.90;;;;;;5029417;28;20236;-87
2022/04/09 03:54:37;;;;;;;6.27;1.33;;;5.20;99.90;;;;;;5028727;28;20828;-86
2022/04/09 03:57:04;;;;;;;6.17;1.87;;;5.20;99.90;;;;;;5045960;28;20224;-86
2022/04/09 03:59:31;;;;;;;9.57;1.53;;;5.20;99.90;;;;;;5026144;28;20284;-85
2022/04/09 04:01:58;;;;;;;7.20;1.50;;;5.20;99.90;;;;;;5027332;28;20292;-86
2022/04/09 04:04:25;;;;;;;3.77;1.27;;;5.40;99.90;;;;;;5027005;28;20214;-86
2022/04/09 04:06:51;;;;;;;10.27;1.60;;;5.40;99.90;;;;;;5027246;28;20196;-86
2022/04/09 04:09:18;;;;;;;9.90;1.60;;;5.40;99.90;;;;;;5028840;28;20340;-85
2022/04/09 04:11:46;;;;;;;10.87;1.70;;;5.60;99.90;;;;;;5028568;28;20206;-86
2022/04/09 04:14:13;;;;;;;4.07;1.70;;;5.50;99.90;;;;;;5024020;28;20235;-86
2022/04/09 04:16:40;;;;;;;6.93;1.57;;;5.30;99.90;;;;;;5025240;28;20202;-87
2022/04/09 04:19:07;;;;;;;6.30;1.57;;;5.30;99.90;;;;;;5027017;28;20261;-86
2022/04/09 04:21:33;;;;;;;7.77;1.60;;;5.40;99.90;;;;;;5024090;28;20245;-87
2022/04/09 04:24:00;;;;;;;4.47;1.60;;;5.40;99.90;;;;;;5028369;28;20223;-87
2022/04/09 04:26:27;;;;;;;4.93;1.17;;;5.20;99.90;;;;;;5027988;28;20203;-86
2022/04/09 04:28:54;;;;;;;7.70;1.47;;;5.10;99.90;;;;;;5029469;28;20290;-88
2022/04/09 04:31:21;;;;;;;6.33;1.30;;;5.20;99.90;;;;;;5043168;28;20227;-87
2022/04/09 04:33:49;;;;;;;4.87;1.20;;;5.10;99.90;;;;;;5028518;28;20202;-86
2022/04/09 04:36:15;;;;;;;8.90;1.60;;;5.10;99.90;;;;;;5045162;28;20294;-87
2022/04/09 04:38:43;;;;;;;9.20;1.60;;;5.20;99.90;;;;;;5026534;28;20213;-86
2022/04/09 04:41:10;;;;;;;8.50;1.60;;;5.10;99.90;;;;;;5027984;28;20314;-85
2022/04/09 04:43:36;;;;;;;5.50;1.30;;;5.10;99.90;;;;;;5028507;28;20203;-86
2022/04/09 04:46:04;;;;;;;4.20;1.33;;;5.10;99.90;;;;;;5043274;28;20203;-86
2022/04/09 04:48:32;;;;;;;9.17;1.70;;;5.10;99.90;;;;;;5045218;28;20289;-85
2022/04/09 04:50:59;;;;;;;6.73;1.20;;;4.90;99.90;;;;;;5025989;28;20258;-86
2022/04/09 04:53:25;;;;;;;7.97;1.10;;;4.90;99.90;;;;;;5046682;28;20337;-86
2022/04/09 04:56:01;;;;;;;4.70;0.87;;;4.90;99.90;;;;;;5027893;28;20233;-88
2022/04/09 04:58:35;;;;;;;5.73;1.50;;;4.90;99.90;;;;;;5046407;28;20210;-87
2022/04/09 05:01:02;;;;;;;4.87;0.97;;;5.10;99.90;;;;;;5027421;28;20621;-88
2022/04/09 05:03:29;;;;;;;5.70;1.00;;;5.00;99.90;;;;;;5025291;28;20203;-88
2022/04/09 05:05:56;;;;;;;6.23;1.23;;;5.00;99.90;;;;;;5029433;28;20210;-86
2022/04/09 05:08:23;;;;;;;5.10;1.20;;;4.90;99.90;;;;;;5025019;28;20239;-87
2022/04/09 05:10:50;;;;;;;10.30;1.30;;;5.10;99.90;;;;;;5023864;28;21243;-87
2022/04/09 05:13:17;;;;;;;5.10;1.17;;;5.00;99.90;;;;;;5026055;28;20229;-87
2022/04/09 05:15:44;;;;;;;8.30;1.80;;;5.10;99.90;;;;;;5041389;28;20265;-87
2022/04/09 05:18:11;;;;;;;10.97;1.30;;;5.20;99.90;;;;;;5042818;28;20698;-87
2022/04/09 05:20:38;;;;;;;10.07;1.30;;;5.20;99.90;;;;;;5040495;28;20205;-86
2022/04/09 05:23:05;;;;;;;9.33;1.53;;;5.40;99.90;;;;;;5025447;28;20251;-88
2022/04/09 05:25:32;;;;;;;4.97;1.03;;;5.20;99.90;;;;;;5024162;28;20256;-86
2022/04/09 05:28:07;;;;;;;4.57;1.20;;;5.10;99.90;;;;;;5025209;28;20337;-87
2022/04/09 05:30:41;;;;;;;8.00;1.53;;;5.20;99.90;;;;;;5025474;28;20586;-85
2022/04/09 05:33:09;;;;;;;6.57;1.30;;;5.20;99.90;;;;;;5043427;28;20199;-88
2022/04/09 05:35:37;;;;;;;6.77;1.17;;;5.20;99.90;;;;;;5025690;28;20655;-86
2022/04/09 05:38:04;;;;;;;14.23;4.30;;;5.00;99.90;;;;;;5026480;28;20238;-89
2022/04/09 05:40:31;;;;;;;9.87;1.27;;;4.90;99.90;;;;;;5024250;28;20209;-89
2022/04/09 05:42:58;;;;;;;11.17;1.50;;;4.90;99.90;;;;;;5024778;28;20890;-87
2022/04/09 05:45:24;;;;;;;8.17;1.67;;;5.00;99.90;;;;;;5022182;28;20215;-86
2022/04/09 05:47:51;;;;;;;5.77;1.40;;;5.00;99.90;;;;;;5023631;28;21012;-86
2022/04/09 05:50:18;;;;;;;5.13;1.10;;;4.90;99.90;;;;;;5024933;28;20205;-89
2022/04/09 05:52:45;;;;;;;9.73;1.40;;;4.90;99.90;;;;;;5026263;28;20251;-86
2022/04/09 05:55:12;;;;;;;7.33;1.30;;;4.90;99.90;;;;;;5023202;28;20216;-90
2022/04/09 05:57:39;;;;;;;8.07;1.57;;;5.00;99.90;;;;;;5025053;28;20261;-87
2022/04/09 06:00:07;;;;;;;8.87;1.57;;;5.00;99.90;;;;;;5021543;28;20229;-88
2022/04/09 06:02:36;;;;;;;5.33;1.20;;;5.10;99.90;;;;;;5041246;28;20251;-88
2022/04/09 06:05:04;;;;;;;4.57;1.30;;;5.10;99.90;;;;;;5021793;28;20212;-87
2022/04/09 06:07:33;;;;;;;8.97;1.70;;;5.20;99.90;;;;;;5026639;28;20235;-87
2022/04/09 06:10:00;;;;;;;4.90;1.30;;;5.30;99.90;;;;;;5020636;28;20228;-86
2022/04/09 06:12:27;;;;;;;4.53;1.20;;;5.50;99.90;;;;;;5024117;28;20298;-89
2022/04/09 06:14:54;;;;;;;10.23;2.33;;;5.60;99.90;;;;;;5021714;28;20664;-87
2022/04/09 06:17:25;;;;;;;8.63;1.47;;;5.60;99.90;;;;;;5023033;28;20213;-87
2022/04/09 06:19:52;;;;;;;6.57;1.73;;;5.60;99.90;;;;;;5021515;28;20303;-87
2022/04/09 06:22:19;;;;;;;8.13;1.60;;;5.70;99.90;;;;;;5028439;28;20228;-89
2022/04/09 06:24:46;;;;;;;3.57;1.43;;;5.80;99.90;;;;;;5029889;28;20204;-87
2022/04/09 06:27:13;;;;;;;8.00;2.10;;;5.90;99.90;;;;;;5048552;28;20668;-89
2022/04/09 06:29:40;;;;;;;5.37;1.67;;;6.00;99.90;;;;;;5029079;28;20233;-90
2022/04/09 06:32:07;;;;;;;8.17;1.70;;;6.00;99.90;;;;;;5029449;28;20234;-86
2022/04/09 06:34:34;;;;;;;12.03;2.57;;;6.00;99.90;;;;;;5045084;28;20269;-92
2022/04/09 06:37:00;;;;;;;12.57;2.03;;;6.00;99.90;;;;;;5029553;28;20300;-90
2022/04/09 06:39:34;;;;;;;11.77;1.70;;;6.20;99.90;;;;;;5029764;28;20205;-86
2022/04/09 06:42:01;;;;;;;9.03;1.93;;;6.20;99.90;;;;;;5044214;28;20252;-91
2022/04/09 06:44:28;;;;;;;12.93;2.03;;;6.20;99.90;;;;;;5041405;28;20208;-84
2022/04/09 06:46:55;;;;;;;8.57;1.70;;;6.30;99.90;;;;;;5042948;28;20579;-84
2022/04/09 06:49:22;;;;;;;8.90;2.40;;;6.10;99.90;;;;;;5025358;28;20220;-87
2022/04/09 06:51:48;;;;;;;5.70;1.43;;;6.00;99.90;;;;;;5024466;28;20318;-86
2022/04/09 06:54:16;;;;;;;5.00;1.67;;;5.60;99.90;;;;;;5029870;28;20267;-88
2022/04/09 06:56:44;;;;;;;5.30;1.53;;;5.70;99.90;;;;;;5029395;28;20259;-86
2022/04/09 06:59:10;;;;;;;5.10;2.00;;;5.60;99.90;;;;;;5025744;28;20223;-89
2022/04/09 07:01:37;;;;;;;4.47;1.20;;;5.70;99.90;;;;;;5028872;28;20273;-87
2022/04/09 07:04:04;;;;;;;6.03;1.10;;;5.90;99.90;;;;;;5027287;28;20218;-88
2022/04/09 07:06:31;;;;;;;6.03;1.40;;;5.80;99.90;;;;;;5026065;28;20243;-88
2022/04/09 07:08:58;;;;;;;8.47;1.47;;;5.70;99.90;;;;;;5026930;28;20246;-85
2022/04/09 07:11:26;;;;;;;4.60;1.40;;;5.80;99.90;;;;;;5046040;28;20243;-88
2022/04/09 07:13:53;;;;;;;9.77;1.60;;;6.00;99.90;;;;;;5045084;28;21021;-85
2022/04/09 07:16:20;;;;;;;6.83;2.10;;;6.30;99.90;;;;;;5039358;28;20298;-86
2022/04/09 07:18:47;;;;;;;7.57;1.97;;;6.50;99.90;;;;;;5026193;28;20216;-84
2022/04/09 07:21:14;;;;;;;5.53;1.53;;;6.40;99.90;;;;;;5040874;28;20659;-86
2022/04/09 07:23:43;;;;;;;7.03;1.70;;;6.20;99.90;;;;;;5027857;28;20226;-86
2022/04/09 07:26:10;;;;;;;6.97;1.60;;;6.00;99.90;;;;;;5027774;28;20224;-87
2022/04/09 07:28:37;;;;;;;4.80;1.37;;;6.20;99.90;;;;;;5026272;28;20310;-86
2022/04/09 07:31:04;;;;;;;4.53;1.57;;;6.20;99.90;;;;;;5022625;28;20295;-87
2022/04/09 07:33:31;;;;;;;5.43;1.60;;;6.10;99.90;;;;;;5026435;28;20564;-88
2022/04/09 07:35:58;;;;;;;8.03;1.97;;;6.40;99.90;;;;;;5026435;28;20367;-88
2022/04/09 07:38:25;;;;;;;5.33;1.40;;;6.40;99.90;;;;;;5028082;28;20202;-87
2022/04/09 07:40:54;;;;;;;5.83;1.70;;;6.40;99.90;;;;;;5026826;28;20216;-88
2022/04/09 07:43:21;;;;;;;4.80;1.50;;;6.50;99.90;;;;;;5025512;28;20786;-87
2022/04/09 07:45:48;;;;;;;6.13;1.93;;;6.60;99.90;;;;;;5024857;28;20539;-85
2022/04/09 07:48:16;;;;;;;6.40;1.83;;;6.60;99.90;;;;;;5043303;28;21075;-85
2022/04/09 07:50:43;;;;;;;11.43;2.83;;;6.90;99.90;;;;;;5021363;28;20679;-84
2022/04/09 07:53:11;;;;;;;5.00;1.70;;;7.00;99.90;;;;;;5024376;28;20200;-84
2022/04/09 07:55:38;;;;;;;10.70;2.33;;;7.20;99.90;;;;;;5019432;28;20228;-86
2022/04/09 07:58:07;;;;;;;13.97;2.70;;;7.40;99.90;;;;;;5025593;28;20239;-84
2022/04/09 08:00:34;;;;;;;5.97;1.97;;;7.30;99.90;;;;;;5024232;28;20212;-88
2022/04/09 08:03:03;;;;;;;6.77;1.90;;;7.40;99.90;;;;;;5020966;28;20204;-85
2022/04/09 08:05:30;;;;;;;13.77;3.90;;;7.70;99.90;;;;;;5039900;28;20298;-84
2022/04/09 08:07:59;;;;;;;5.87;1.60;;;7.90;99.90;;;;;;5043049;28;20649;-83
2022/04/09 08:10:27;;;;;;;6.10;1.70;;;7.90;99.90;;;;;;5036620;28;20241;-85
2022/04/09 08:12:56;;;;;;;7.30;2.13;;;8.00;99.90;;;;;;5009616;28;20261;-83
2022/04/09 08:15:24;;;;;;;6.73;1.80;;;8.00;99.90;;;;;;5041296;28;20249;-84
2022/04/09 08:17:54;;;;;;;6.30;2.00;;;8.00;99.90;;;;;;5041963;28;20245;-84
2022/04/09 08:20:41;;;;;;;13.93;1.73;;;8.20;99.90;;;;;;5036852;28;20204;-81
2022/04/09 08:23:08;;;;;;;10.50;2.10;;;8.10;99.90;;;;;;5022041;28;20274;-79
2022/04/09 08:25:35;;;;;;;2.70;1.00;;;8.00;99.90;;;;;;5019095;28;20226;-82
2022/04/09 08:28:02;;;;;;;4.03;1.00;;;7.70;1.00;;;;;;5039520;28;20307;-83
2022/04/09 08:30:29;;;;;;;4.77;1.00;;;7.50;99.90;;;;;;5021344;28;20289;-85
2022/04/09 08:33:01;;;;;;;4.97;1.03;;;7.50;1.00;;;;;;5038525;28;22257;-84
2022/04/09 08:35:28;;;;;;;4.20;1.40;;;7.80;1.00;;;;;;5040827;28;20201;-83
2022/04/09 08:37:56;;;;;;;6.60;1.30;;;8.20;1.00;;;;;;5022121;28;20635;-84
2022/04/09 08:40:24;;;;;;;3.53;0.93;;;8.60;1.00;;;;;;5036016;28;20193;-83
2022/04/09 08:42:53;;;;;;;3.17;0.90;;;8.10;1.00;;;;;;5036153;28;20202;-82
2022/04/09 08:45:22;;;;;;;3.73;0.87;;;8.10;1.00;;;;;;5039888;28;20209;-83
2022/04/09 08:47:51;;;;;;;3.83;0.80;;;7.90;99.90;;;;;;5016507;28;20211;-83
2022/04/09 08:50:19;;;;;;;1.43;0.70;;;7.90;75.10;;;;;;5033439;28;20216;-82
2022/04/09 08:52:46;;;;;;;3.43;1.17;;;8.00;1.00;;;;;;5022899;28;20583;-83
2022/04/09 08:55:13;;;;;;;1.10;0.57;;;8.50;99.90;;;;;;5019399;28;20662;-82
2022/04/09 08:57:42;;;;;;;3.73;0.60;;;8.90;1.00;;;;;;5020073;28;20738;-82
2022/04/09 09:00:13;;;;;;;2.90;0.80;;;9.40;99.90;;;;;;5018125;28;20210;-83
2022/04/09 09:03:10;;;;;;;2.53;1.10;;;9.50;99.90;;;;;;5020603;28;20668;-82
2022/04/09 09:05:39;;;;;;;4.13;1.10;;;10.10;99.90;;;;;;5017714;28;20308;-83
2022/04/09 09:08:08;;;;;;;2.50;0.63;;;9.30;1.00;;;;;;5038660;28;20337;-82
2022/04/09 09:10:35;;;;;;;2.40;0.40;;;8.90;99.90;;;;;;5021705;28;20208;-81
2022/04/09 09:13:12;;;;;;;0.60;0.33;;;8.80;99.90;;;;;;5022175;28;20223;-85
2022/04/09 09:15:52;;;;;;;2.40;0.30;;;8.60;99.90;;;;;;5023190;28;20218;-82
2022/04/09 09:18:26;;;;;;;2.17;0.90;;;8.50;99.90;;;;;;5019697;28;20316;-84
2022/04/09 09:20:58;;;;;;;1.07;0.60;;;8.60;99.90;;;;;;5035798;28;20321;-81
2022/04/09 09:23:45;;;;;;;1.20;0.60;;;8.20;99.90;;;;;;5044355;28;20266;-84
2022/04/09 09:26:20;;;;;;;2.73;0.70;;;8.50;99.90;;;;;;5044394;28;20619;-83
2022/04/09 09:28:58;;;;;;;4.50;0.83;;;9.00;99.90;;;;;;5029681;28;20651;-83
2022/04/09 09:31:42;;;;;;;3.87;0.90;;;9.40;99.90;;;;;;5044358;28;20261;-90
2022/04/09 09:34:18;;;;;;;0.87;0.73;;;9.60;99.90;;;;;;5020938;28;20629;-85
2022/04/09 09:36:46;;;;;;;2.20;0.90;;;9.70;99.90;;;;;;5042684;28;20206;-87
2022/04/09 09:39:22;;;;;;;3.93;1.10;;;9.70;1.00;;;;;;5024870;28;20547;-88
2022/04/09 09:41:49;;;;;;;4.57;1.03;;;9.70;99.90;;;;;;5037178;28;20240;-84
2022/04/09 09:44:18;;;;;;;4.60;1.30;;;10.20;99.90;;;;;;5018548;28;20203;-85
2022/04/09 09:46:49;;;;;;;5.57;1.10;;;10.70;99.90;;;;;;5019152;28;22808;-83
2022/04/09 09:49:17;;;;;;;4.80;1.10;;;11.00;99.90;;;;;;5033952;28;20273;-86
2022/04/09 09:52:00;;;;;;;5.87;1.17;;;11.00;99.90;;;;;;5023559;28;20244;-85
2022/04/09 09:54:27;;;;;;;4.90;1.40;;;10.80;99.90;;;;;;5024965;28;20211;-89
2022/04/09 09:56:55;;;;;;;4.67;1.07;;;10.70;99.90;;;;;;5046006;28;20323;-85
2022/04/09 09:59:23;;;;;;;3.17;1.53;;;10.90;99.90;;;;;;5028716;28;20204;-83
2022/04/09 10:01:51;;;;;;;3.90;1.30;;;10.80;99.90;;;;;;5029404;28;20273;-84
2022/04/09 10:04:20;;;;;;;5.17;1.40;;;11.20;99.90;;;;;;5028833;28;20578;-80
2022/04/09 10:06:48;;;;;;;3.77;1.27;;;11.50;1.00;;;;;;5027352;28;20302;-85
2022/04/09 10:09:15;;;;;;;1.90;0.90;;;11.80;99.90;;;;;;5033231;28;20242;-85
2022/04/09 10:11:47;;;;;;;3.30;1.00;;;11.40;99.90;;;;;;5046925;28;20199;-85
2022/04/09 10:14:17;;;;;;;3.73;1.23;;;11.30;99.90;;;;;;5026633;28;20679;-85
2022/04/09 10:16:45;;;;;;;6.97;1.30;;;11.10;99.90;;;;;;5024593;28;20294;-87
2022/04/09 10:19:13;;;;;;;3.87;1.17;;;11.20;99.90;;;;;;5025223;28;20239;-84
2022/04/09 10:21:41;;;;;;;6.93;1.43;;;10.80;99.90;;;;;;5030558;28;20273;-85
2022/04/09 10:24:20;;;;;;;3.17;1.13;;;10.90;99.90;;;;;;5027171;28;20667;-85
2022/04/09 10:26:47;;;;;;;1.90;1.00;;;10.90;99.90;;;;;;5045298;28;20211;-84
2022/04/09 10:29:14;;;;;;;8.80;1.30;;;10.40;99.90;;;;;;5045253;28;20896;-84
2022/04/09 10:31:41;;;;;;;4.07;1.30;;;10.20;99.90;;;;;;5027271;28;20209;-83
2022/04/09 10:34:10;;;;;;;3.50;1.07;;;10.10;99.90;;;;;;5045529;28;20531;-84
2022/04/09 10:36:40;;;;;;;2.17;0.90;;;10.10;99.90;;;;;;5025489;28;20219;-84
2022/04/09 10:42:48;;;;;;;2.20;0.80;;;10.20;99.90;;;;;;5030150;28;20671;-85
2022/04/09 10:45:15;;;;;;;3.20;0.70;;;10.40;99.90;;;;;;5045531;28;20208;-86
2022/04/09 10:48:06;;;;;;;1.37;0.60;;;10.30;99.90;;;;;;5025328;28;20206;-87
2022/04/09 10:50:51;;;;;;;1.73;0.87;;;10.50;99.90;;;;;;5024769;28;20643;-86
2022/04/09 10:53:22;;;;;;;1.60;0.60;;;10.90;99.90;;;;;;5025251;28;20281;-81
2022/04/09 10:56:32;;;;;;;2.17;0.67;;;11.20;99.90;;;;;;5028829;28;20366;-85
2022/04/09 10:59:29;;;;;;;3.27;1.03;;;11.30;99.90;;;;;;5028389;28;20431;-84
2022/04/09 11:01:56;;;;;;;3.50;0.80;;;11.70;99.90;;;;;;5024444;28;20201;-84
2022/04/09 11:07:17;;;;;;;2.07;0.60;;;12.00;99.90;;;;;;5048082;28;20214;-82
2022/04/09 11:10:08;;;;;;;3.07;0.70;;;12.00;99.90;;;;;;5049111;28;20571;-84
2022/04/09 11:12:37;;;;;;;3.37;0.80;;;12.10;99.90;;;;;;5046251;28;20195;-88
2022/04/09 11:15:06;;;;;;;3.90;0.83;;;12.00;99.90;;;;;;5045178;28;20203;-85
2022/04/09 11:17:48;;;;;;;1.37;0.70;;;12.40;99.90;;;;;;5030282;28;20226;-81
2022/04/09 11:20:15;;;;;;;4.40;0.60;;;12.50;99.90;;;;;;5047352;28;20203;-88
2022/04/09 11:22:44;;;;;;;3.37;0.60;;;12.30;99.90;;;;;;5027019;28;20407;-87
2022/04/09 11:25:29;;;;;;;2.73;0.50;;;12.00;99.90;;;;;;5040885;28;20727;-83
2022/04/09 11:28:13;;;;;;;1.57;0.53;;;12.80;99.90;;;;;;5044592;28;20276;-83
2022/04/09 11:31:00;;;;;;;3.13;1.00;;;12.70;99.90;;;;;;5021549;28;20222;-82
2022/04/09 11:33:27;;;;;;;1.67;0.87;;;12.50;99.90;;;;;;5036432;28;20318;-82
2022/04/09 11:35:55;;;;;;;1.20;0.70;;;12.40;99.90;;;;;;5027029;28;20273;-84
2022/04/09 11:38:25;;;;;;;4.33;0.50;;;12.20;99.90;;;;;;5027032;28;20237;-84
2022/04/09 11:40:54;;;;;;;1.77;0.70;;;12.60;99.90;;;;;;5025484;28;20272;-86
2022/04/09 11:43:22;;;;;;;1.60;0.80;;;12.90;99.90;;;;;;5024787;28;20650;-84
2022/04/09 11:45:49;;;;;;;1.33;0.40;;;13.10;99.90;;;;;;5028362;28;20257;-85
2022/04/09 11:48:21;;;;;;;1.87;0.70;;;12.20;99.90;;;;;;5025110;28;20298;-86
2022/04/09 11:50:49;;;;;;;2.13;0.73;;;12.80;99.90;;;;;;5023360;28;20215;-84
2022/04/09 11:53:24;;;;;;;0.97;0.50;;;12.70;99.90;;;;;;5043972;28;20307;-84
2022/04/09 11:55:59;;;;;;;2.67;0.50;;;12.80;99.90;;;;;;5021995;28;20236;-86
2022/04/09 11:58:31;;;;;;;3.07;0.70;;;13.10;99.90;;;;;;5025179;28;20208;-82
2022/04/09 12:00:58;;;;;;;2.10;0.90;;;13.40;99.90;;;;;;5028636;28;20200;-83
2022/04/09 12:03:26;;;;;;;4.57;0.93;;;13.60;99.90;;;;;;5028379;28;20234;-84
2022/04/09 12:05:53;;;;;;;3.00;0.90;;;13.00;99.90;;;;;;5030542;28;20235;-83
2022/04/09 12:08:24;;;;;;;4.40;0.80;;;12.10;94.80;;;;;;5028074;28;20326;-86
2022/04/09 12:11:00;;;;;;;3.60;1.07;;;11.40;99.90;;;;;;5027812;28;20228;-83
2022/04/09 12:13:29;;;;;;;3.03;0.70;;;11.20;99.90;;;;;;5040916;28;20262;-82
2022/04/09 12:16:16;;;;;;;3.67;1.00;;;11.20;99.90;;;;;;5025760;28;20765;-86
2022/04/09 12:18:43;;;;;;;4.30;1.10;;;11.60;99.90;;;;;;5025626;28;20195;-82
2022/04/09 12:21:20;;;;;;;2.37;0.90;;;12.10;99.90;;;;;;5031146;28;20646;-83
2022/04/09 12:24:00;;;;;;;6.03;1.17;;;12.00;99.90;;;;;;5049503;28;20667;-83
2022/04/09 12:26:27;;;;;;;1.43;0.73;;;11.70;99.90;;;;;;5032179;28;20328;-85
2022/04/09 12:29:13;;;;;;;3.20;1.00;;;10.80;99.90;;;;;;5048068;28;20207;-84
2022/04/09 12:31:42;;;;;;;6.67;1.40;;;11.20;99.90;;;;;;5030966;28;20310;-85
2022/04/09 12:34:10;;;;;;;3.63;0.93;;;11.20;99.90;;;;;;5030314;28;20269;-86
2022/04/09 12:36:38;;;;;;;4.77;1.13;;;11.10;99.90;;;;;;5032525;28;20909;-86
2022/04/09 12:39:29;;;;;;;3.80;1.40;;;11.80;99.90;;;;;;5032033;28;20266;-85
2022/04/09 12:41:58;;;;;;;4.70;1.37;;;12.10;99.90;;;;;;5032974;28;20551;-85
2022/04/09 12:44:29;;;;;;;6.63;1.50;;;11.50;99.90;;;;;;5025749;28;20627;-85
2022/04/09 12:46:57;;;;;;;4.73;1.17;;;11.30;99.90;;;;;;5048696;28;20321;-85
2022/04/09 12:49:28;;;;;;;3.87;1.00;;;11.00;99.90;;;;;;5031865;28;20290;-83
2022/04/09 12:51:56;;;;;;;6.80;1.60;;;11.10;99.90;;;;;;5050675;28;20254;-84
2022/04/09 12:54:24;;;;;;;2.40;1.60;;;11.30;99.90;;;;;;5015186;28;20698;-84
2022/04/09 12:56:51;;;;;;;3.07;1.23;;;11.40;99.90;;;;;;5028148;28;20685;-85
2022/04/09 12:59:19;;;;;;;4.87;1.00;;;11.50;99.90;;;;;;5048115;28;20207;-84
2022/04/09 13:01:46;;;;;;;4.83;1.20;;;11.10;99.90;;;;;;5032107;28;20687;-85
2022/04/09 13:04:13;;;;;;;6.30;1.20;;;11.10;99.90;;;;;;5029936;28;20631;-83
2022/04/09 13:06:40;;;;;;;3.63;0.90;;;11.50;99.90;;;;;;5049817;28;20780;-86
2022/04/09 13:09:09;;;;;;;4.03;1.20;;;11.40;99.90;;;;;;5020612;28;20238;-84